createdAt,value
2022-10-23T00:04:53.069Z,100.00
2022-10-23T00:10:23.539Z,99.85
2022-10-23T00:13:13.755Z,100.00
2022-10-23T00:18:48.829Z,99.33
2022-10-23T00:24:25.950Z,100.00
2022-10-23T00:30:06.840Z,99.49
2022-10-23T00:35:55.662Z,100.00
2022-10-23T00:41:32.698Z,100.00
2022-10-23T00:44:57.456Z,100.00
2022-10-23T00:47:46.096Z,100.00
2022-10-23T00:50:35.674Z,100.00
2022-10-23T00:56:14.765Z,100.00
2022-10-23T00:59:03.555Z,100.00
2022-10-23T01:01:51.981Z,100.00
2022-10-23T01:04:40.460Z,100.00
2022-10-23T01:07:33.455Z,100.00
2022-10-23T01:13:06.443Z,100.00
2022-10-23T01:18:46.035Z,100.00
2022-10-23T01:24:33.210Z,100.00
2022-10-23T01:30:17.278Z,100.00
2022-10-23T01:35:52.027Z,100.00
2022-10-23T01:41:33.791Z,100.00
2022-10-23T01:47:32.560Z,100.00
2022-10-23T01:50:22.737Z,100.00
2022-10-23T01:55:56.931Z,100.00
2022-10-23T02:01:31.521Z,100.00
2022-10-23T02:07:08.947Z,100.00
2022-10-23T02:09:58.385Z,100.00
2022-10-23T02:15:34.656Z,100.00
2022-10-23T02:21:24.247Z,100.00
2022-10-23T02:26:56.693Z,100.00
2022-10-23T02:32:34.590Z,100.00
2022-10-23T02:35:24.388Z,100.00
2022-10-23T02:41:17.673Z,100.00
2022-10-23T02:44:37.650Z,100.00
2022-10-23T02:47:33.750Z,100.00
2022-10-23T02:53:17.274Z,100.00
2022-10-23T02:59:09.159Z,100.00
2022-10-23T03:04:45.346Z,100.00
2022-10-23T03:10:19.966Z,100.00
2022-10-23T03:15:50.441Z,100.00
2022-10-23T03:21:23.013Z,100.00
2022-10-23T03:27:12.361Z,100.00
2022-10-23T03:30:01.251Z,100.00
2022-10-23T03:32:49.536Z,100.00
2022-10-23T03:38:26.328Z,100.00
2022-10-23T03:44:01.891Z,100.00
2022-10-23T03:49:38.289Z,100.00
2022-10-23T03:52:27.868Z,100.00
2022-10-23T03:57:57.498Z,100.00
2022-10-23T04:00:45.717Z,100.00
2022-10-23T04:06:22.891Z,100.00
2022-10-23T04:14:51.457Z,100.00
2022-10-23T04:17:40.056Z,100.00
2022-10-23T04:23:17.018Z,100.00
2022-10-23T04:31:39.974Z,100.00
2022-10-23T04:34:29.070Z,100.00
2022-10-23T04:37:17.263Z,100.00
2022-10-23T04:42:54.121Z,100.00
2022-10-23T04:48:29.700Z,100.00
2022-10-23T04:54:05.046Z,100.00
2022-10-23T04:56:54.464Z,100.00
2022-10-23T04:59:42.973Z,100.00
2022-10-23T05:05:33.018Z,100.00
2022-10-23T05:08:21.467Z,100.00
2022-10-23T05:11:12.216Z,100.00
2022-10-23T05:14:00.891Z,100.00
2022-10-23T05:19:36.740Z,100.00
2022-10-23T05:25:10.660Z,100.00
2022-10-23T05:30:46.669Z,100.00
2022-10-23T05:36:20.986Z,100.00
2022-10-23T05:41:56.303Z,100.00
2022-10-23T05:47:54.975Z,100.00
2022-10-23T05:53:25.770Z,100.00
2022-10-23T05:59:03.659Z,100.00
2022-10-23T06:04:44.011Z,100.00
2022-10-23T06:07:35.840Z,100.00
2022-10-23T06:10:25.335Z,100.00
2022-10-23T06:13:13.765Z,100.00
2022-10-23T06:18:50.338Z,100.00
2022-10-23T06:21:43.577Z,100.00
2022-10-23T06:27:19.332Z,100.00
2022-10-23T06:33:04.528Z,100.00
2022-10-23T06:38:43.721Z,100.00
2022-10-23T06:41:31.716Z,100.00
2022-10-23T06:44:20.049Z,100.00
2022-10-23T06:49:56.792Z,100.00
2022-10-23T06:52:47.621Z,100.00
2022-10-23T06:58:23.380Z,100.00
2022-10-23T07:04:02.114Z,100.00
2022-10-23T07:09:38.819Z,100.00
2022-10-23T07:15:10.807Z,100.00
2022-10-23T07:20:44.190Z,100.00
2022-10-23T07:26:16.916Z,100.00
2022-10-23T07:31:57.568Z,100.00
2022-10-23T07:34:45.817Z,100.00
2022-10-23T07:40:21.704Z,100.00
2022-10-23T07:46:12.467Z,100.00
2022-10-23T07:51:51.251Z,100.00
2022-10-23T07:57:25.138Z,100.00
2022-10-23T08:03:02.758Z,98.30
2022-10-23T08:05:51.253Z,97.78
2022-10-23T08:11:28.068Z,97.00
2022-10-23T08:14:16.289Z,95.97
2022-10-23T08:17:07.935Z,97.27
2022-10-23T08:22:42.341Z,98.39
2022-10-23T08:28:20.221Z,100.00
2022-10-23T08:31:13.912Z,100.00
2022-10-23T08:34:01.873Z,100.00
2022-10-23T08:36:50.137Z,100.00
2022-10-23T08:42:30.539Z,100.00
2022-10-23T08:48:17.676Z,100.00
2022-10-23T08:56:38.011Z,100.00
2022-10-23T09:02:22.483Z,98.50
2022-10-23T09:05:16.867Z,98.50
2022-10-23T09:11:23.159Z,96.59
2022-10-23T09:22:48.237Z,94.04
2022-10-23T09:25:38.912Z,93.38
2022-10-23T09:28:28.412Z,93.19
2022-10-23T09:34:06.477Z,92.36
2022-10-23T09:39:48.353Z,90.62
2022-10-23T09:45:27.694Z,90.13
2022-10-23T09:56:36.438Z,84.91
2022-10-23T10:02:21.974Z,82.67
2022-10-23T10:08:23.804Z,80.54
2022-10-23T10:11:16.939Z,80.41
2022-10-23T10:14:29.694Z,79.83
2022-10-23T10:20:43.978Z,79.50
2022-10-23T10:26:24.517Z,76.72
2022-10-23T10:32:07.097Z,75.30
2022-10-23T10:37:55.178Z,77.10
2022-10-23T10:43:36.375Z,77.67
2022-10-23T10:46:27.548Z,77.71
2022-10-23T10:52:02.338Z,76.65
2022-10-23T10:54:55.947Z,76.35
2022-10-23T10:57:47.323Z,77.04
2022-10-23T11:00:35.984Z,78.25
2022-10-23T11:03:29.541Z,79.32
2022-10-23T11:09:20.407Z,80.17
2022-10-23T11:15:02.558Z,82.26
2022-10-23T11:17:53.423Z,82.07
2022-10-23T11:23:51.705Z,80.44
2022-10-23T11:26:51.769Z,79.63
2022-10-23T11:33:24.906Z,80.26
2022-10-23T11:38:58.680Z,81.41
2022-10-23T11:47:39.267Z,81.21
2022-10-23T11:50:30.859Z,80.25
2022-10-23T11:53:33.650Z,79.42
2022-10-23T11:59:26.023Z,80.43
2022-10-23T12:05:09.893Z,76.41
2022-10-23T12:07:59.130Z,74.94
2022-10-23T12:13:49.519Z,75.32
2022-10-23T12:19:31.068Z,76.47
2022-10-23T12:22:22.074Z,76.55
2022-10-23T12:27:59.431Z,77.01
2022-10-23T12:36:40.817Z,76.02
2022-10-23T12:39:30.534Z,76.03
2022-10-23T12:45:11.271Z,74.06
2022-10-23T12:50:54.165Z,75.42
2022-10-23T12:56:36.550Z,71.68
2022-10-23T13:05:22.248Z,67.03
2022-10-23T13:11:00.888Z,67.58
2022-10-23T13:19:26.973Z,67.85
2022-10-23T13:22:22.366Z,69.32
2022-10-23T13:25:24.659Z,69.36
2022-10-23T13:31:36.658Z,69.42
2022-10-23T13:34:28.729Z,69.90
2022-10-23T13:37:26.000Z,67.89
2022-10-23T13:43:14.497Z,71.52
2022-10-23T13:46:03.546Z,70.94
2022-10-23T13:48:51.811Z,70.07
2022-10-23T13:54:30.933Z,70.73
2022-10-23T14:00:10.127Z,71.67
2022-10-23T14:05:44.222Z,71.41
2022-10-23T14:14:08.719Z,72.74
2022-10-23T14:19:45.455Z,72.40
2022-10-23T14:22:33.785Z,72.70
2022-10-23T14:30:55.923Z,74.52
2022-10-23T14:36:38.795Z,76.56
2022-10-23T14:42:07.543Z,77.03
2022-10-23T14:47:36.514Z,78.88
2022-10-23T14:53:15.807Z,81.17
2022-10-23T14:56:04.462Z,81.11
2022-10-23T15:01:45.176Z,81.31
2022-10-23T15:07:12.407Z,82.00
2022-10-23T15:12:50.235Z,82.33
2022-10-23T15:18:27.267Z,84.59
2022-10-23T15:24:06.282Z,88.39
2022-10-23T15:26:54.098Z,88.87
2022-10-23T15:32:31.464Z,91.00
2022-10-23T15:38:09.043Z,93.58
2022-10-23T15:43:46.023Z,91.73
2022-10-23T15:46:34.499Z,89.96
2022-10-23T15:52:12.395Z,89.70
2022-10-23T15:57:45.800Z,86.09
2022-10-23T16:03:35.850Z,83.36
2022-10-23T16:09:13.524Z,84.97
2022-10-23T16:14:49.462Z,87.55
2022-10-23T16:17:37.531Z,88.61
2022-10-23T16:20:25.794Z,94.53
2022-10-23T16:23:13.947Z,95.33
2022-10-23T16:28:56.971Z,99.14
2022-10-23T16:31:49.086Z,100.00
2022-10-23T16:37:26.835Z,100.00
2022-10-23T16:45:46.030Z,100.00
2022-10-23T16:51:22.320Z,100.00
2022-10-23T16:56:58.802Z,100.00
2022-10-23T17:02:35.349Z,100.00
2022-10-23T17:08:12.155Z,100.00
2022-10-23T17:13:58.647Z,100.00
2022-10-23T17:16:48.129Z,100.00
2022-10-23T17:22:25.766Z,100.00
2022-10-23T17:25:14.609Z,100.00
2022-10-23T17:28:02.733Z,100.00
2022-10-23T17:33:40.615Z,100.00
2022-10-23T17:36:30.843Z,100.00
2022-10-23T17:42:06.169Z,100.00
2022-10-23T17:47:44.695Z,100.00
2022-10-23T17:53:19.389Z,100.00
2022-10-23T17:56:09.714Z,100.00
2022-10-23T18:04:35.368Z,100.00
2022-10-23T18:07:27.423Z,99.85
2022-10-23T18:13:13.095Z,97.97
2022-10-23T18:18:54.520Z,98.27
2022-10-23T18:24:51.280Z,99.89
2022-10-23T18:27:41.561Z,99.25
2022-10-23T18:36:18.229Z,99.39
2022-10-23T18:41:53.436Z,96.99
2022-10-23T18:44:44.571Z,96.87
2022-10-23T18:47:33.588Z,97.60
2022-10-23T18:53:22.752Z,95.33
2022-10-23T18:59:10.340Z,100.00
2022-10-23T19:04:49.804Z,100.00
2022-10-23T19:10:30.400Z,97.61
2022-10-23T19:19:17.807Z,88.74
2022-10-23T19:25:40.975Z,79.72
2022-10-23T19:31:23.440Z,76.46
2022-10-23T19:36:54.577Z,73.81
2022-10-23T19:42:30.291Z,71.57
2022-10-23T19:48:06.480Z,72.52
2022-10-23T19:50:55.956Z,71.71
2022-10-23T19:56:30.761Z,72.65
2022-10-23T19:59:30.159Z,72.42
2022-10-23T20:05:10.455Z,74.51
2022-10-23T20:10:48.112Z,76.48
2022-10-23T20:16:21.319Z,77.92
2022-10-23T20:21:56.977Z,81.71
2022-10-23T20:27:29.544Z,86.45
2022-10-23T20:33:05.251Z,87.64
2022-10-23T20:41:33.663Z,90.45
2022-10-23T20:47:13.158Z,89.05
2022-10-23T20:50:02.021Z,88.51
2022-10-23T20:52:50.353Z,86.98
2022-10-23T20:55:43.360Z,87.89
2022-10-23T21:01:27.054Z,88.63
2022-10-23T21:07:10.801Z,91.52
2022-10-23T21:12:44.563Z,92.07
2022-10-23T21:18:41.100Z,95.24
2022-10-23T21:23:50.279Z,95.25
2022-10-23T21:26:38.763Z,96.24
2022-10-23T21:29:27.273Z,95.61
2022-10-23T21:32:15.600Z,98.37
2022-10-23T21:35:03.748Z,100.00
2022-10-23T21:40:39.778Z,100.00
2022-10-23T21:43:28.301Z,100.00
2022-10-23T21:46:18.798Z,100.00
2022-10-23T21:49:07.351Z,100.00
2022-10-23T21:51:55.505Z,100.00
2022-10-23T21:57:36.109Z,100.00
2022-10-23T22:03:19.907Z,100.00
2022-10-23T22:08:50.530Z,100.00
2022-10-23T22:14:21.046Z,100.00
2022-10-23T22:19:57.578Z,100.00
2022-10-23T22:25:35.360Z,100.00
2022-10-23T22:31:28.392Z,100.00
2022-10-23T22:37:05.476Z,100.00
2022-10-23T22:42:35.993Z,100.00
2022-10-23T22:45:23.966Z,100.00
2022-10-23T22:48:12.586Z,100.00
2022-10-23T22:51:00.885Z,100.00
2022-10-23T22:53:50.342Z,100.00
2022-10-23T22:56:38.584Z,100.00
2022-10-23T22:59:27.918Z,100.00
2022-10-23T23:05:01.371Z,100.00
2022-10-23T23:07:49.792Z,100.00
2022-10-23T23:13:25.491Z,100.00
2022-10-23T23:19:06.381Z,100.00
2022-10-23T23:21:57.289Z,100.00
2022-10-23T23:27:33.604Z,100.00
2022-10-23T23:33:24.072Z,100.00
2022-10-23T23:39:01.684Z,100.00
2022-10-23T23:44:31.938Z,100.00
2022-10-23T23:47:20.159Z,100.00
2022-10-23T23:50:11.694Z,100.00
2022-10-23T23:55:49.238Z,100.00
